0TX1 – Local Weather Observations

Pecan Plantation / Sawgrass Ct

This weather station is operated by a private user located just north of the field. See WeatherUnderground for the full data feed and other nearby stations.

Last updated:
2017-12-17 00:11:14 (6:11 pm)

Temperature: 44.4 °F

Sunrise / Sunset: 7:24 am / 5:29 pm

Moonrise / Moonset: 5:51 am / 4:40 pm

Winds gusting from the South-Southeast at 7.0 mph

Nearby METARs

KGDJ 162355Z AUTO 12005KT 10SM RA SCT050 SCT070 OVC090 08/06 A3002 RMK AO2 P0002 60003 T00810057 10156 20081

KCPT 162355Z AUTO 14012KT 5SM -RA SCT032 BKN043 OVC070 07/07 A3003 RMK AO2

KFWS 162346Z 11011KT 7SM RA BKN034 OVC048 07/06 A3006